METAR Data
IDs: Format: Raw Decoded Include TAF

Data at: 0200 UTC 01 Mar 2021

METAR for:EBFS (Florennes(AB), WN, BX)
Text:EBFS 010125Z AUTO 08006KT 9999 FEW120/// BKN220/// 02/M02 Q1031 BLU
Temperature: 2.0°C ( 36°F)
Dewpoint: -2.0°C ( 28°F) [RH = 75%]
Pressure (altimeter):30.44 inches Hg (1031.0 mb)
Winds:from the E (80 degrees) at 7 MPH (6 knots; 3.1 m/s)
Visibility:6 or more sm (10+ km)
Ceiling:22000 feet AGL
Clouds: few clouds at 12000 feet AGL, broken clouds at 22000 feet AGL

TAF for:EBFS (Florennes(AB), WN, BX) issued at 1541 UTC 28 Feb 2021
Text:TAF EBFS 281541Z 2819/0107 06009KT 9999 SKC
Forecast period:1900 UTC 28 February 2021 to 0700 UTC 01 March 2021
Forecast type:FROM: standard forecast or significant change
Winds:from the ENE (60 degrees) at 10 MPH (9 knots; 4.6 m/s)
Visibility:6 or more sm (10+ km)
Ceiling:at least 12,000 feet AGL
Clouds:clear skies
Text:PROB30
Forecast period:1900 to 2100 UTC 28 February 2021
Forecast type:TEMPORARY: The following changes expected for less than half the time period
Visibility: 2.49 sm ( 4.01 km)
Clouds:missing
Weather:BR (mist)
Text:TEMPO 2819/2821 4000 BR
Forecast period:0300 to 0700 UTC 28 February 2021
Forecast type:TEMPORARY: The following changes expected for less than half the time period
Visibility: 1.24 sm ( 2.00 km)
Clouds:missing
Weather:BR (mist)